createdAt,value
2018-06-02T00:01:11.358Z,23.10
2018-06-02T00:03:12.331Z,23.10
2018-06-02T00:05:13.694Z,23.10
2018-06-02T00:07:15.050Z,23.20
2018-06-02T00:09:16.198Z,23.20
2018-06-02T00:11:17.163Z,23.20
2018-06-02T00:13:18.121Z,23.30
2018-06-02T00:15:19.114Z,23.40
2018-06-02T00:17:20.101Z,23.00
2018-06-02T00:19:21.463Z,22.80
2018-06-02T00:21:22.547Z,22.80
2018-06-02T00:23:23.529Z,22.90
2018-06-02T00:25:24.860Z,23.00
2018-06-02T00:27:26.209Z,23.00
2018-06-02T00:29:27.202Z,23.00
2018-06-02T00:31:28.179Z,22.90
2018-06-02T00:33:29.539Z,22.80
2018-06-02T00:35:30.518Z,22.80
2018-06-02T00:37:31.482Z,22.80
2018-06-02T00:39:32.846Z,22.70
2018-06-02T00:41:33.844Z,22.70
2018-06-02T00:43:34.859Z,22.90
2018-06-02T00:45:35.842Z,22.80
2018-06-02T00:47:37.208Z,22.70
2018-06-02T00:49:38.227Z,22.70
2018-06-02T00:51:39.163Z,22.50
2018-06-02T00:53:40.163Z,22.50
2018-06-02T00:55:41.175Z,22.50
2018-06-02T00:57:42.178Z,22.50
2018-06-02T00:59:43.526Z,22.40
2018-06-02T01:01:44.491Z,22.30
2018-06-02T01:03:45.471Z,22.10
2018-06-02T01:05:46.831Z,21.60
2018-06-02T01:07:48.002Z,21.60
2018-06-02T01:09:48.992Z,21.40
2018-06-02T01:11:50.328Z,21.50
2018-06-02T01:13:51.687Z,21.80
2018-06-02T01:15:52.696Z,21.80
2018-06-02T01:17:53.698Z,22.10
2018-06-02T01:19:54.669Z,22.30
2018-06-02T01:21:56.020Z,22.30
2018-06-02T01:23:57.370Z,22.20
2018-06-02T01:25:58.744Z,22.20
2018-06-02T01:27:59.894Z,22.20
2018-06-02T01:30:01.246Z,22.20
2018-06-02T01:32:02.248Z,22.30
2018-06-02T01:34:03.225Z,22.20
2018-06-02T01:36:04.234Z,22.10
2018-06-02T01:38:05.232Z,22.00
2018-06-02T01:40:13.590Z,22.10
2018-06-02T01:42:14.586Z,22.10
2018-06-02T01:44:15.574Z,22.20
2018-06-02T01:46:16.590Z,22.30
2018-06-02T01:48:17.574Z,22.30
2018-06-02T01:50:18.940Z,22.20
2018-06-02T01:52:19.905Z,22.20
2018-06-02T01:54:21.038Z,22.10
2018-06-02T01:56:22.039Z,22.10
2018-06-02T01:58:23.031Z,22.10
2018-06-02T02:00:24.421Z,22.20
2018-06-02T02:02:25.777Z,22.20
2018-06-02T02:04:26.742Z,22.20
2018-06-02T02:06:27.717Z,22.20
2018-06-02T02:08:29.069Z,22.10
2018-06-02T02:10:30.421Z,22.00
2018-06-02T02:12:31.403Z,22.00
2018-06-02T02:14:32.396Z,21.90
2018-06-02T02:16:33.363Z,21.90
2018-06-02T02:18:34.371Z,21.80
2018-06-02T02:20:35.366Z,21.80
2018-06-02T02:22:36.351Z,22.00
2018-06-02T02:24:37.366Z,22.10
2018-06-02T02:26:38.357Z,22.10
2018-06-02T02:28:39.317Z,22.10
2018-06-02T02:30:40.683Z,22.00
2018-06-02T02:32:41.666Z,22.00
2018-06-02T02:34:42.636Z,22.10
2018-06-02T02:36:43.979Z,22.00
2018-06-02T02:38:45.383Z,21.90
2018-06-02T02:40:46.355Z,21.90
2018-06-02T02:42:47.707Z,22.00
2018-06-02T02:44:49.086Z,22.00
2018-06-02T02:46:50.082Z,22.00
2018-06-02T02:48:51.428Z,22.00
2018-06-02T02:50:52.810Z,22.10
2018-06-02T02:52:53.815Z,22.10
2018-06-02T02:54:54.798Z,22.30
2018-06-02T02:56:55.791Z,22.30
2018-06-02T02:58:56.770Z,22.30
2018-06-02T03:00:57.731Z,22.20
2018-06-02T03:02:58.750Z,22.10
2018-06-02T03:04:59.756Z,22.00
2018-06-02T03:07:00.734Z,22.00
2018-06-02T03:09:01.718Z,21.90
2018-06-02T03:11:03.099Z,21.90
2018-06-02T03:13:04.083Z,21.90
2018-06-02T03:15:05.094Z,22.00
2018-06-02T03:17:06.463Z,22.00
2018-06-02T03:19:07.439Z,22.00
2018-06-02T03:21:08.431Z,22.00
2018-06-02T03:23:09.418Z,22.20
2018-06-02T03:25:10.592Z,22.10
2018-06-02T03:27:11.922Z,22.20
2018-06-02T03:29:13.311Z,22.10
2018-06-02T03:31:14.282Z,22.10
2018-06-02T03:33:15.311Z,22.20
2018-06-02T03:35:16.338Z,22.10
2018-06-02T03:37:17.329Z,22.10
2018-06-02T03:39:18.307Z,22.10
2018-06-02T03:41:19.278Z,22.10
2018-06-02T03:43:20.639Z,22.20
2018-06-02T03:45:22.019Z,22.20
2018-06-02T03:47:23.017Z,22.20
2018-06-02T03:49:23.990Z,22.20
2018-06-02T03:51:25.115Z,22.30
2018-06-02T03:53:26.099Z,22.30
2018-06-02T03:55:27.108Z,22.20
2018-06-02T03:57:28.089Z,22.20
2018-06-02T03:59:29.430Z,22.10
2018-06-02T04:01:30.966Z,22.20
2018-06-02T04:03:31.950Z,22.20
2018-06-02T04:05:33.294Z,22.10
2018-06-02T04:07:34.567Z,22.10
2018-06-02T04:09:35.550Z,22.10
2018-06-02T04:11:36.540Z,22.00
2018-06-02T04:13:37.507Z,22.10
2018-06-02T04:15:38.895Z,22.10
2018-06-02T04:17:39.918Z,22.10
2018-06-02T04:19:40.912Z,22.10
2018-06-02T04:21:49.511Z,22.00
2018-06-02T04:23:50.474Z,22.00
2018-06-02T04:25:51.449Z,22.10
2018-06-02T04:27:52.535Z,22.00
2018-06-02T04:29:53.882Z,22.00
2018-06-02T04:31:55.246Z,21.90
2018-06-02T04:33:56.235Z,21.90
2018-06-02T04:35:58.031Z,21.90
2018-06-02T04:37:59.006Z,22.00
2018-06-02T04:40:00.030Z,22.00
2018-06-02T04:42:01.010Z,22.00
2018-06-02T04:44:02.383Z,22.10
2018-06-02T04:46:03.361Z,22.10
2018-06-02T04:48:04.394Z,22.00
2018-06-02T04:50:05.394Z,22.00
2018-06-02T04:52:06.363Z,21.90
2018-06-02T04:54:07.422Z,21.80
2018-06-02T04:56:08.402Z,21.80
2018-06-02T04:58:09.394Z,21.80
2018-06-02T05:00:10.374Z,22.00
2018-06-02T05:02:11.351Z,22.00
2018-06-02T05:04:12.350Z,22.00
2018-06-02T05:06:13.326Z,22.10
2018-06-02T05:08:14.302Z,22.10
2018-06-02T05:10:15.294Z,22.10
2018-06-02T05:12:16.270Z,21.80
2018-06-02T05:14:17.260Z,22.00
2018-06-02T05:16:18.246Z,22.10
2018-06-02T05:18:19.221Z,22.10
2018-06-02T05:20:20.198Z,22.00
2018-06-02T05:22:21.553Z,22.00
2018-06-02T05:24:22.535Z,22.00
2018-06-02T05:26:23.543Z,22.10
2018-06-02T05:28:24.544Z,22.10
2018-06-02T05:30:25.554Z,22.10
2018-06-02T05:32:26.538Z,22.00
2018-06-02T05:34:27.526Z,22.10
2018-06-02T05:36:28.615Z,22.10
2018-06-02T05:38:29.591Z,22.00
2018-06-02T05:40:30.612Z,22.10
2018-06-02T05:42:31.557Z,22.00
2018-06-02T05:44:32.531Z,22.00
2018-06-02T05:46:33.527Z,21.80
2018-06-02T05:48:34.546Z,21.60
2018-06-02T05:50:35.529Z,21.60
2018-06-02T05:52:36.873Z,21.80
2018-06-02T05:54:38.362Z,21.80
2018-06-02T05:56:39.306Z,21.80
2018-06-02T05:58:40.299Z,22.00
2018-06-02T06:00:41.294Z,22.10
2018-06-02T06:02:42.271Z,22.10
2018-06-02T06:04:43.250Z,21.80
2018-06-02T06:06:44.230Z,22.10
2018-06-02T06:08:45.230Z,21.90
2018-06-02T06:10:46.205Z,21.20
2018-06-02T06:12:47.182Z,20.60
2018-06-02T06:14:48.171Z,20.10
2018-06-02T06:16:49.130Z,19.80
2018-06-02T06:18:50.100Z,19.80
2018-06-02T06:20:51.074Z,19.90
2018-06-02T06:22:52.085Z,19.90
2018-06-02T06:24:53.094Z,19.80
2018-06-02T06:26:54.124Z,19.50
2018-06-02T06:28:55.038Z,19.60
2018-06-02T06:30:56.002Z,19.80
2018-06-02T06:32:57.000Z,19.80
2018-06-02T06:34:58.145Z,20.30
2018-06-02T06:36:59.148Z,20.50
2018-06-02T06:39:00.493Z,20.10
2018-06-02T06:41:01.835Z,19.80
2018-06-02T06:43:03.187Z,19.80
2018-06-02T06:45:04.170Z,19.80
2018-06-02T06:47:05.526Z,19.70
2018-06-02T06:49:06.510Z,19.90
2018-06-02T06:51:07.505Z,19.80
2018-06-02T06:53:08.466Z,19.60
2018-06-02T06:55:09.804Z,19.20
2018-06-02T06:57:10.829Z,19.30
2018-06-02T06:59:12.190Z,19.40
2018-06-02T07:01:13.542Z,19.30
2018-06-02T07:05:22.326Z,19.20
2018-06-02T07:07:23.324Z,19.40
2018-06-02T07:09:24.349Z,19.80
2018-06-02T07:11:25.346Z,20.20
2018-06-02T07:13:26.334Z,20.30
2018-06-02T07:15:27.289Z,20.30
2018-06-02T07:17:28.273Z,20.50
2018-06-02T07:19:29.665Z,20.90
2018-06-02T07:21:30.602Z,20.90
2018-06-02T07:23:31.911Z,20.90
2018-06-02T07:25:33.191Z,20.90
2018-06-02T07:27:34.124Z,20.80
2018-06-02T07:29:35.662Z,20.70
2018-06-02T07:31:36.619Z,20.30
2018-06-02T07:33:37.789Z,20.10
2018-06-02T07:35:39.320Z,20.10
2018-06-02T07:37:40.285Z,20.10
2018-06-02T07:39:41.414Z,20.00
2018-06-02T07:41:43.018Z,20.30
2018-06-02T07:43:44.375Z,20.30
2018-06-02T07:45:45.443Z,20.40
2018-06-02T07:47:46.427Z,20.40
2018-06-02T07:49:47.430Z,20.70
2018-06-02T07:51:48.452Z,20.90
2018-06-02T07:53:49.614Z,20.90
2018-06-02T07:55:50.593Z,20.50
2018-06-02T07:57:51.540Z,20.50
2018-06-02T07:59:52.888Z,20.40
2018-06-02T08:01:54.237Z,20.80
2018-06-02T08:03:55.569Z,20.70
2018-06-02T08:05:56.902Z,21.00
2018-06-02T08:07:57.894Z,21.00
2018-06-02T08:09:58.842Z,20.90
2018-06-02T08:11:59.828Z,20.90
2018-06-02T08:14:01.183Z,20.60
2018-06-02T08:16:02.139Z,20.60
2018-06-02T08:18:03.414Z,20.80
2018-06-02T08:20:04.484Z,20.80
2018-06-02T08:22:05.838Z,20.70
2018-06-02T08:24:07.115Z,20.70
2018-06-02T08:26:08.141Z,20.90
2018-06-02T08:28:09.513Z,21.00
2018-06-02T08:30:10.483Z,20.90
2018-06-02T08:32:11.851Z,20.30
2018-06-02T08:34:12.818Z,20.30
2018-06-02T08:36:21.002Z,20.20
2018-06-02T08:38:21.930Z,20.20
2018-06-02T08:40:22.890Z,20.30
2018-06-02T08:42:24.930Z,20.50
2018-06-02T08:44:26.274Z,20.50
2018-06-02T08:46:27.278Z,20.60
2018-06-02T08:48:35.329Z,21.10
2018-06-02T08:50:36.414Z,20.90
2018-06-02T08:52:37.818Z,21.20
2018-06-02T08:54:38.773Z,21.20
2018-06-02T08:56:40.518Z,21.20
2018-06-02T08:58:41.833Z,20.60
2018-06-02T09:00:42.826Z,20.60
2018-06-02T09:02:44.193Z,20.30
2018-06-02T09:04:45.177Z,20.50
2018-06-02T09:06:46.154Z,20.60
2018-06-02T09:08:47.246Z,20.40
2018-06-02T09:10:48.199Z,20.60
2018-06-02T09:12:49.656Z,20.60
2018-06-02T09:14:50.838Z,20.60
2018-06-02T09:16:52.409Z,20.80
2018-06-02T09:18:53.826Z,21.50
2018-06-02T09:20:54.813Z,21.50
2018-06-02T09:22:56.287Z,21.70
2018-06-02T09:24:57.382Z,21.60
2018-06-02T09:26:58.970Z,21.20
2018-06-02T09:28:59.962Z,21.20
2018-06-02T09:31:00.934Z,21.30
2018-06-02T09:33:02.514Z,21.60
2018-06-02T09:35:03.552Z,21.30
2018-06-02T09:37:04.841Z,21.80
2018-06-02T09:39:06.174Z,21.90
2018-06-02T09:41:07.482Z,21.80
2018-06-02T09:43:09.112Z,21.80
2018-06-02T09:45:10.326Z,21.80
2018-06-02T09:47:12.175Z,21.70
2018-06-02T09:49:13.526Z,21.70
2018-06-02T09:51:14.585Z,21.70
2018-06-02T09:53:15.791Z,21.60
2018-06-02T09:55:17.158Z,21.50
2018-06-02T09:57:18.098Z,21.60
2018-06-02T09:59:19.448Z,21.70
2018-06-02T10:01:20.436Z,21.70
2018-06-02T10:03:21.738Z,21.40
2018-06-02T10:05:22.690Z,21.40
2018-06-02T10:07:24.377Z,21.50
2018-06-02T10:09:25.994Z,21.50
2018-06-02T10:11:27.530Z,21.50
2018-06-02T10:13:28.462Z,21.60
2018-06-02T10:15:29.671Z,21.60
2018-06-02T10:17:30.666Z,21.40
2018-06-02T10:19:31.598Z,21.40
2018-06-02T10:21:32.892Z,21.30
2018-06-02T10:23:33.854Z,21.00
2018-06-02T10:25:34.836Z,21.00
2018-06-02T10:27:36.174Z,21.10
2018-06-02T10:29:37.966Z,21.30
2018-06-02T10:31:38.907Z,21.30
2018-06-02T10:33:40.027Z,20.90
2018-06-02T10:35:41.462Z,20.70
2018-06-02T10:37:42.341Z,20.80
2018-06-02T10:39:43.652Z,20.60
2018-06-02T10:41:44.962Z,20.50
2018-06-02T10:43:46.525Z,20.80
2018-06-02T10:45:47.770Z,20.80
2018-06-02T10:47:48.710Z,21.00
2018-06-02T10:49:49.729Z,21.10
2018-06-02T10:51:50.794Z,21.10
2018-06-02T10:53:51.985Z,21.10
2018-06-02T10:55:52.894Z,21.00
2018-06-02T10:57:53.842Z,21.10
2018-06-02T10:59:55.147Z,21.20
2018-06-02T11:01:56.144Z,21.20
2018-06-02T11:03:57.486Z,20.70
2018-06-02T11:05:59.098Z,20.50
2018-06-02T11:08:00.097Z,20.50
2018-06-02T11:10:01.128Z,20.40
2018-06-02T11:12:02.075Z,20.50
2018-06-02T11:14:03.067Z,20.40
2018-06-02T11:16:04.406Z,20.50
2018-06-02T11:18:05.917Z,20.50
2018-06-02T11:20:06.903Z,20.50
2018-06-02T11:22:08.410Z,20.60
2018-06-02T11:24:09.683Z,20.60
2018-06-02T11:26:11.094Z,21.10
2018-06-02T11:28:12.537Z,21.00
2018-06-02T11:30:13.498Z,21.10
2018-06-02T11:32:14.838Z,22.00
2018-06-02T11:34:16.518Z,22.00
2018-06-02T11:36:17.615Z,21.90
2018-06-02T11:38:18.642Z,21.80
2018-06-02T11:40:19.648Z,21.40
2018-06-02T11:42:21.006Z,21.40
2018-06-02T11:44:22.152Z,21.30
2018-06-02T11:46:23.390Z,21.40
2018-06-02T11:48:24.516Z,21.30
2018-06-02T11:50:25.683Z,21.10
2018-06-02T11:52:26.658Z,21.30
2018-06-02T11:54:27.626Z,21.60
2018-06-02T11:56:28.620Z,21.60
2018-06-02T11:58:30.030Z,21.50
2018-06-02T12:00:31.028Z,21.50
2018-06-02T12:02:31.987Z,21.50
2018-06-02T12:04:32.972Z,21.60
2018-06-02T12:06:34.320Z,21.70
2018-06-02T12:08:35.325Z,21.70
2018-06-02T12:10:36.290Z,21.80
2018-06-02T12:12:37.388Z,21.90
2018-06-02T12:14:38.351Z,21.60
2018-06-02T12:16:39.674Z,20.80
2018-06-02T12:18:40.654Z,20.80
2018-06-02T12:20:41.906Z,20.60
2018-06-02T12:22:43.220Z,20.50
2018-06-02T12:24:44.162Z,20.30
2018-06-02T12:26:45.662Z,20.30
2018-06-02T12:28:46.652Z,20.40
2018-06-02T12:30:47.643Z,20.30
2018-06-02T12:32:48.609Z,20.30
2018-06-02T12:34:49.839Z,20.40
2018-06-02T12:36:50.910Z,20.10
2018-06-02T12:38:52.036Z,20.00
2018-06-02T12:40:53.437Z,19.90
2018-06-02T12:42:54.391Z,20.00
2018-06-02T12:44:56.072Z,20.00
2018-06-02T12:46:57.054Z,20.00
2018-06-02T12:48:58.027Z,20.20
2018-06-02T12:50:59.005Z,20.30
2018-06-02T12:53:00.003Z,20.30
2018-06-02T12:55:01.017Z,20.20
2018-06-02T12:57:02.039Z,20.30
2018-06-02T12:59:03.226Z,20.50
2018-06-02T13:01:04.209Z,20.60
2018-06-02T13:03:05.276Z,20.70
2018-06-02T13:05:06.405Z,20.80
2018-06-02T13:07:07.764Z,20.70
2018-06-02T13:09:08.837Z,20.70
2018-06-02T13:11:09.885Z,20.60
2018-06-02T13:13:10.872Z,20.50
2018-06-02T13:15:11.878Z,20.30
2018-06-02T13:17:12.823Z,20.30
2018-06-02T13:19:13.863Z,20.50
2018-06-02T13:21:15.566Z,20.80
2018-06-02T13:23:16.731Z,20.80
2018-06-02T13:25:17.707Z,20.90
2018-06-02T13:27:18.672Z,20.40
2018-06-02T13:29:20.058Z,20.50
2018-06-02T13:31:21.403Z,20.90
2018-06-02T13:33:22.751Z,20.90
2018-06-02T13:35:24.146Z,20.90
2018-06-02T13:37:25.150Z,20.90
2018-06-02T13:39:26.154Z,21.30
2018-06-02T13:41:27.142Z,21.90
2018-06-02T13:43:28.114Z,22.20
2018-06-02T13:45:29.250Z,21.50
2018-06-02T13:47:30.262Z,21.20
2018-06-02T13:49:31.279Z,21.00
2018-06-02T13:51:32.254Z,21.20
2018-06-02T13:53:33.225Z,21.00
2018-06-02T13:55:34.315Z,21.00
2018-06-02T13:57:35.325Z,20.80
2018-06-02T13:59:36.272Z,21.00
2018-06-02T14:01:37.362Z,21.40
2018-06-02T14:03:38.704Z,21.40
2018-06-02T14:05:40.031Z,21.60
2018-06-02T14:07:41.027Z,21.60
2018-06-02T14:09:41.965Z,21.90
2018-06-02T14:11:43.467Z,22.10
2018-06-02T14:13:44.819Z,21.60
2018-06-02T14:15:45.936Z,21.60
2018-06-02T14:17:47.310Z,21.50
2018-06-02T14:19:48.291Z,21.50
2018-06-02T14:21:49.304Z,21.60
2018-06-02T14:23:50.518Z,21.60
2018-06-02T14:25:51.486Z,21.60
2018-06-02T14:27:52.418Z,21.80
2018-06-02T14:29:53.350Z,22.00
2018-06-02T14:31:55.238Z,21.70
2018-06-02T14:33:56.449Z,21.50
2018-06-02T14:35:57.989Z,21.80
2018-06-02T14:37:59.035Z,22.00
2018-06-02T14:40:00.031Z,22.30
2018-06-02T14:42:01.716Z,22.20
2018-06-02T14:44:02.830Z,21.70
2018-06-02T14:46:03.803Z,21.80
2018-06-02T14:48:04.795Z,21.70
2018-06-02T14:50:05.894Z,21.90
2018-06-02T14:52:06.888Z,22.00
2018-06-02T14:54:07.962Z,21.50
2018-06-02T14:56:09.076Z,21.40
2018-06-02T14:58:10.471Z,21.00
2018-06-02T15:00:12.025Z,21.20
2018-06-02T15:02:13.074Z,21.20
2018-06-02T15:04:14.010Z,21.10
2018-06-02T15:06:15.017Z,21.10
2018-06-02T15:08:16.398Z,21.30
2018-06-02T15:10:17.434Z,21.30
2018-06-02T15:12:18.503Z,21.00
2018-06-02T15:14:19.772Z,20.90
2018-06-02T15:16:21.265Z,20.80
2018-06-02T15:18:22.407Z,20.80
2018-06-02T15:20:23.455Z,20.90
2018-06-02T15:22:24.452Z,20.90
2018-06-02T15:24:25.455Z,21.00
2018-06-02T15:26:26.839Z,20.80
2018-06-02T15:28:27.833Z,20.80
2018-06-02T15:30:28.787Z,20.70
2018-06-02T15:32:30.135Z,20.70
2018-06-02T15:34:31.075Z,20.70
2018-06-02T15:36:32.061Z,20.50
2018-06-02T15:38:33.006Z,20.90
2018-06-02T15:40:33.971Z,21.30
2018-06-02T15:42:34.935Z,21.10
2018-06-02T15:44:35.889Z,21.20
2018-06-02T15:46:37.170Z,20.80
2018-06-02T15:48:38.549Z,21.10
2018-06-02T15:50:39.829Z,21.10
2018-06-02T15:52:40.775Z,21.10
2018-06-02T15:54:41.738Z,21.50
2018-06-02T15:56:42.698Z,21.50
2018-06-02T15:58:43.653Z,21.60
2018-06-02T16:00:44.762Z,21.60
2018-06-02T16:02:45.761Z,21.50
2018-06-02T16:04:46.747Z,21.60
2018-06-02T16:06:47.699Z,21.40
2018-06-02T16:08:48.674Z,21.40
2018-06-02T16:10:50.033Z,20.50
2018-06-02T16:12:50.979Z,20.50
2018-06-02T16:14:52.629Z,20.40
2018-06-02T16:16:53.910Z,20.40
2018-06-02T16:18:54.982Z,20.40
2018-06-02T16:20:56.343Z,20.60
2018-06-02T16:22:57.332Z,20.60
2018-06-02T16:24:58.302Z,20.80
2018-06-02T16:26:59.298Z,20.50
2018-06-02T16:29:00.290Z,20.40
2018-06-02T16:31:01.296Z,20.60
2018-06-02T16:33:02.653Z,20.50
2018-06-02T16:35:03.718Z,20.50
2018-06-02T16:37:04.687Z,20.80
2018-06-02T16:39:05.634Z,20.20
2018-06-02T16:41:06.810Z,20.00
2018-06-02T16:43:07.934Z,20.00
2018-06-02T16:45:11.791Z,20.00
2018-06-02T16:47:12.769Z,20.20
2018-06-02T16:49:15.306Z,20.20
2018-06-02T16:51:16.377Z,20.30
2018-06-02T16:53:17.346Z,20.50
2018-06-02T16:55:18.337Z,20.80
2018-06-02T16:57:19.682Z,20.90
2018-06-02T16:59:21.029Z,20.90
2018-06-02T17:01:22.334Z,20.60
2018-06-02T17:03:23.283Z,20.50
2018-06-02T17:05:24.674Z,20.30
2018-06-02T17:07:25.631Z,20.20
2018-06-02T17:09:26.576Z,20.20
2018-06-02T17:11:27.884Z,20.20
2018-06-02T17:13:28.813Z,20.10
2018-06-02T17:15:29.767Z,20.30
2018-06-02T17:17:30.906Z,20.00
2018-06-02T17:19:32.436Z,20.20
2018-06-02T17:21:33.366Z,20.30
2018-06-02T17:23:34.558Z,20.80
2018-06-02T17:25:35.722Z,20.70
2018-06-02T17:27:37.045Z,20.80
2018-06-02T17:29:38.223Z,20.80
2018-06-02T17:31:39.498Z,20.90
2018-06-02T17:33:40.530Z,21.00
2018-06-02T17:35:41.565Z,21.00
2018-06-02T17:37:42.949Z,20.60
2018-06-02T17:39:44.290Z,20.10
2018-06-02T17:41:45.630Z,19.90
2018-06-02T17:43:47.001Z,20.00
2018-06-02T17:45:47.990Z,20.00
2018-06-02T17:47:49.082Z,19.90
2018-06-02T17:49:50.063Z,20.00
2018-06-02T17:51:51.055Z,20.20
2018-06-02T17:53:52.034Z,20.50
2018-06-02T17:55:53.038Z,20.50
2018-06-02T17:57:54.010Z,20.60
2018-06-02T17:59:55.008Z,20.30
2018-06-02T18:01:56.050Z,20.60
2018-06-02T18:03:57.026Z,20.60
2018-06-02T18:05:58.002Z,20.50
2018-06-02T18:07:58.975Z,20.60
2018-06-02T18:09:59.949Z,20.70
2018-06-02T18:12:01.327Z,20.90
2018-06-02T18:14:02.303Z,21.00
2018-06-02T18:16:03.298Z,21.00
2018-06-02T18:18:04.282Z,21.10
2018-06-02T18:20:05.630Z,21.20
2018-06-02T18:22:06.981Z,20.90
2018-06-02T18:24:08.361Z,21.00
2018-06-02T18:26:09.338Z,21.00
2018-06-02T18:28:10.303Z,20.80
2018-06-02T18:30:11.283Z,20.80
2018-06-02T18:32:12.264Z,21.10
2018-06-02T18:34:13.898Z,20.90
2018-06-02T18:36:14.878Z,20.90
2018-06-02T18:38:15.858Z,20.60
2018-06-02T18:40:16.859Z,20.70
2018-06-02T18:42:18.215Z,20.80
2018-06-02T18:44:19.590Z,20.90
2018-06-02T18:46:20.563Z,21.00
2018-06-02T18:48:21.642Z,21.10
2018-06-02T18:50:22.670Z,21.00
2018-06-02T18:52:23.657Z,20.90
2018-06-02T18:54:25.005Z,20.60
2018-06-02T18:56:25.981Z,20.60
2018-06-02T18:58:26.985Z,20.60
2018-06-02T19:00:27.973Z,20.70
2018-06-02T19:02:28.962Z,20.80
2018-06-02T19:04:29.974Z,20.80
2018-06-02T19:06:31.338Z,20.80
2018-06-02T19:08:32.310Z,20.80
2018-06-02T19:10:33.302Z,20.80
2018-06-02T19:12:34.285Z,20.70
2018-06-02T19:14:35.266Z,20.60
2018-06-02T19:16:36.235Z,20.70
2018-06-02T19:18:37.223Z,20.50
2018-06-02T19:20:38.601Z,20.60
2018-06-02T19:22:39.612Z,20.60
2018-06-02T19:24:40.557Z,20.50
2018-06-02T19:26:41.538Z,20.70
2018-06-02T19:28:42.506Z,20.80
2018-06-02T19:30:43.850Z,21.00
2018-06-02T19:32:45.202Z,20.90
2018-06-02T19:34:46.189Z,20.90
2018-06-02T19:36:47.170Z,20.90
2018-06-02T19:38:48.167Z,20.80
2018-06-02T19:40:49.134Z,20.90
2018-06-02T19:42:50.122Z,20.90
2018-06-02T19:44:51.120Z,20.90
2018-06-02T19:46:52.171Z,21.00
2018-06-02T19:48:53.147Z,20.70
2018-06-02T19:50:54.142Z,20.60
2018-06-02T19:52:55.129Z,20.50
2018-06-02T19:54:56.086Z,20.30
2018-06-02T19:56:57.081Z,20.60
2018-06-02T19:58:58.058Z,20.70
2018-06-02T20:00:59.038Z,20.60
2018-06-02T20:03:00.003Z,20.70
2018-06-02T20:05:01.513Z,20.70
2018-06-02T20:07:02.514Z,20.70
2018-06-02T20:09:03.644Z,20.60
2018-06-02T20:11:04.620Z,20.70
2018-06-02T20:13:05.600Z,20.60
2018-06-02T20:15:06.991Z,20.60
2018-06-02T20:17:07.972Z,20.60
2018-06-02T20:19:09.343Z,20.60
2018-06-02T20:21:10.347Z,20.70
2018-06-02T20:23:11.316Z,20.60
2018-06-02T20:25:12.266Z,20.80
2018-06-02T20:27:13.248Z,20.70
2018-06-02T20:29:14.270Z,20.50
2018-06-02T20:31:15.238Z,20.00
2018-06-02T20:33:16.619Z,20.20
2018-06-02T20:35:17.619Z,20.20
2018-06-02T20:37:18.975Z,20.10
2018-06-02T20:39:19.966Z,20.10
2018-06-02T20:41:27.985Z,20.20
2018-06-02T20:43:29.356Z,20.30
2018-06-02T20:45:30.335Z,20.30
2018-06-02T20:47:31.358Z,20.30
2018-06-02T20:49:32.347Z,20.30
2018-06-02T20:51:33.706Z,20.20
2018-06-02T20:53:34.690Z,20.20
2018-06-02T20:55:35.657Z,20.30
2018-06-02T20:57:37.013Z,20.30
2018-06-02T20:59:38.031Z,20.30
2018-06-02T21:01:39.369Z,20.30
2018-06-02T21:03:40.718Z,20.20
2018-06-02T21:05:42.094Z,20.30
2018-06-02T21:07:43.074Z,20.30
2018-06-02T21:09:44.064Z,20.20
2018-06-02T21:11:45.050Z,20.20
2018-06-02T21:13:46.078Z,20.10
2018-06-02T21:15:46.991Z,20.20
2018-06-02T21:17:48.007Z,20.20
2018-06-02T21:19:48.994Z,20.20
2018-06-02T21:21:49.966Z,20.10
2018-06-02T21:23:50.939Z,20.20
2018-06-02T21:25:51.923Z,20.20
2018-06-02T21:27:52.894Z,20.00
2018-06-02T21:29:53.877Z,20.10
2018-06-02T21:31:55.269Z,20.20
2018-06-02T21:33:56.258Z,20.20
2018-06-02T21:35:57.627Z,20.20
2018-06-02T21:37:58.630Z,20.20
2018-06-02T21:39:59.998Z,20.20
2018-06-02T21:42:01.133Z,20.20
2018-06-02T21:44:02.126Z,19.90
2018-06-02T21:46:03.235Z,19.90
2018-06-02T21:48:04.251Z,20.20
2018-06-02T21:50:05.237Z,20.10
2018-06-02T21:52:06.214Z,20.10
2018-06-02T21:54:07.374Z,20.00
2018-06-02T21:56:08.347Z,20.20
2018-06-02T21:58:09.302Z,20.30
2018-06-02T22:00:10.702Z,20.10
2018-06-02T22:02:11.675Z,20.10
2018-06-02T22:04:12.642Z,20.10
2018-06-02T22:06:13.622Z,20.20
2018-06-02T22:08:14.582Z,20.10
2018-06-02T22:10:16.122Z,20.10
2018-06-02T22:12:17.090Z,20.10
2018-06-02T22:14:18.070Z,20.10
2018-06-02T22:16:19.051Z,20.20
2018-06-02T22:18:20.031Z,20.00
2018-06-02T22:20:21.015Z,19.90
2018-06-02T22:22:22.371Z,19.80
2018-06-02T22:24:23.398Z,19.90
2018-06-02T22:26:24.739Z,20.10
2018-06-02T22:28:26.215Z,20.20
2018-06-02T22:30:27.293Z,20.20
2018-06-02T22:32:28.277Z,20.10
2018-06-02T22:34:29.290Z,20.00
2018-06-02T22:36:30.622Z,20.10
2018-06-02T22:38:31.955Z,20.00
2018-06-02T22:40:32.933Z,20.00
2018-06-02T22:42:33.919Z,19.90
2018-06-02T22:44:34.906Z,20.10
2018-06-02T22:46:42.910Z,20.10
2018-06-02T22:48:43.898Z,19.90
2018-06-02T22:50:44.903Z,19.80
2018-06-02T22:52:45.890Z,19.60
2018-06-02T22:54:47.234Z,19.70
2018-06-02T22:56:48.578Z,19.80
2018-06-02T22:58:49.547Z,19.80
2018-06-02T23:00:50.636Z,19.80
2018-06-02T23:02:52.002Z,19.80
2018-06-02T23:04:52.981Z,19.80
2018-06-02T23:06:53.957Z,19.60
2018-06-02T23:08:55.287Z,19.90
2018-06-02T23:10:56.641Z,19.80
2018-06-02T23:12:57.998Z,19.70
2018-06-02T23:14:59.112Z,19.80
2018-06-02T23:17:00.074Z,19.90
2018-06-02T23:19:01.051Z,19.90
2018-06-02T23:21:02.058Z,19.70
2018-06-02T23:23:04.911Z,19.70
2018-06-02T23:25:05.902Z,19.70
2018-06-02T23:27:07.069Z,19.80
2018-06-02T23:29:08.426Z,19.80
2018-06-02T23:31:09.423Z,19.80
2018-06-02T23:33:10.403Z,19.70
2018-06-02T23:35:11.431Z,19.70
2018-06-02T23:37:12.843Z,19.80
2018-06-02T23:39:13.995Z,19.80
2018-06-02T23:41:15.519Z,19.70
2018-06-02T23:43:16.616Z,19.70
2018-06-02T23:45:17.657Z,19.70
2018-06-02T23:47:18.699Z,19.60
2018-06-02T23:49:20.016Z,19.50
2018-06-02T23:51:21.013Z,19.60
2018-06-02T23:53:21.990Z,19.40
2018-06-02T23:55:22.978Z,19.60
2018-06-02T23:57:23.974Z,19.60
2018-06-02T23:59:24.981Z,19.60
